Time;durP1;ratioP1;P1;durP2;ratioP2;P2;SDS_P1;SDS_P2;PMS_P1;PMS_P2;Temp;Humidity;BMP_temperature;BMP_pressure;BME280_temperature;BME280_humidity;BME280_pressure;Samples;Min_cycle;Max_cycle;Signal;HPM_P1;HPM_P2
2022/05/22 00:02:06;;;;;;;6.23;4.27;;;12.10;99.90;;;;;;5076593;28;20183;-40
2022/05/22 00:04:33;;;;;;;5.80;4.57;;;12.10;99.90;;;;;;5094996;28;20171;-40
2022/05/22 00:06:59;;;;;;;7.33;4.97;;;12.00;99.90;;;;;;5095022;28;20542;-39
2022/05/22 00:09:25;;;;;;;6.37;4.53;;;12.00;99.90;;;;;;5076354;28;20182;-39
2022/05/22 00:11:51;;;;;;;7.80;5.03;;;12.00;99.90;;;;;;5095038;28;20188;-39
2022/05/22 00:14:18;;;;;;;8.13;5.10;;;11.90;99.90;;;;;;5095480;28;20273;-40
2022/05/22 00:16:46;;;;;;;6.27;4.47;;;11.90;99.90;;;;;;5095036;28;20195;-40
2022/05/22 00:19:22;;;;;;;9.47;4.70;;;11.90;99.90;;;;;;5094612;28;20190;-42
2022/05/22 00:21:49;;;;;;;6.30;4.80;;;11.80;99.90;;;;;;5094155;28;20181;-39
2022/05/22 00:24:17;;;;;;;7.33;5.23;;;11.80;99.90;;;;;;5094554;28;20182;-39
2022/05/22 00:26:43;;;;;;;5.93;4.57;;;11.80;99.90;;;;;;5094475;28;20181;-38
2022/05/22 00:29:09;;;;;;;7.33;4.60;;;11.70;99.90;;;;;;5094091;28;20606;-41
2022/05/22 00:31:34;;;;;;;6.73;4.67;;;11.70;99.90;;;;;;5094953;28;20707;-39
2022/05/22 00:34:00;;;;;;;6.50;4.93;;;11.70;99.90;;;;;;5094496;28;20179;-39
2022/05/22 00:36:26;;;;;;;5.30;3.83;;;11.70;99.90;;;;;;5094856;28;20534;-39
2022/05/22 00:38:52;;;;;;;5.13;4.13;;;11.60;99.90;;;;;;5093816;28;20209;-39
2022/05/22 00:41:18;;;;;;;6.33;3.93;;;11.60;99.90;;;;;;5093912;28;20216;-39
2022/05/22 00:43:48;;;;;;;5.90;4.10;;;11.50;99.90;;;;;;5093940;28;20232;-38
2022/05/22 00:46:16;;;;;;;6.03;4.00;;;11.50;99.90;;;;;;5094020;28;20189;-40
2022/05/22 00:48:48;;;;;;;6.60;3.93;;;11.50;99.90;;;;;;5093703;28;20200;-41
2022/05/22 00:51:18;;;;;;;4.03;3.50;;;11.40;99.90;;;;;;5093971;28;20255;-40
2022/05/22 00:54:06;;;;;;;6.17;3.87;;;11.40;99.90;;;;;;5075475;28;20192;-39
2022/05/22 00:56:38;;;;;;;4.80;3.30;;;11.30;99.90;;;;;;5093507;28;20224;-40
2022/05/22 00:59:16;;;;;;;6.63;3.90;;;11.30;99.90;;;;;;5093772;28;20596;-38
2022/05/22 01:01:42;;;;;;;5.17;3.83;;;11.20;99.90;;;;;;5093997;28;20182;-41
2022/05/22 01:04:16;;;;;;;7.10;4.37;;;11.20;99.90;;;;;;5093678;28;20173;-40
2022/05/22 01:06:42;;;;;;;4.97;4.13;;;11.20;99.90;;;;;;5094066;28;20166;-38
2022/05/22 01:09:08;;;;;;;8.23;4.57;;;11.10;99.90;;;;;;5093524;28;20254;-38
2022/05/22 01:11:36;;;;;;;6.80;4.97;;;11.10;99.90;;;;;;5093797;28;20214;-38
2022/05/22 01:14:08;;;;;;;5.47;4.63;;;11.10;99.90;;;;;;5094083;28;20197;-40
2022/05/22 01:16:34;;;;;;;7.63;4.50;;;11.10;99.90;;;;;;5095410;28;20193;-39
2022/05/22 01:19:00;;;;;;;11.17;5.63;;;10.90;99.90;;;;;;5097304;28;20193;-39
2022/05/22 01:21:29;;;;;;;9.70;6.10;;;11.00;99.90;;;;;;5097668;28;20559;-39
2022/05/22 01:23:56;;;;;;;10.03;5.23;;;11.00;99.90;;;;;;5097413;28;20188;-41
2022/05/22 01:26:25;;;;;;;5.87;4.60;;;11.00;99.90;;;;;;5097413;28;20178;-41
2022/05/22 01:28:51;;;;;;;5.90;3.47;;;11.00;99.90;;;;;;5097406;28;20276;-41
2022/05/22 01:31:18;;;;;;;8.30;3.80;;;11.00;99.90;;;;;;5097598;28;20274;-40
2022/05/22 01:33:44;;;;;;;6.33;3.73;;;10.90;99.90;;;;;;5097160;28;20199;-40
2022/05/22 01:36:10;;;;;;;4.70;3.70;;;10.90;99.90;;;;;;5097067;28;20173;-41
2022/05/22 01:38:37;;;;;;;6.17;3.83;;;10.80;99.90;;;;;;5097353;28;20304;-40
2022/05/22 01:41:04;;;;;;;3.97;3.60;;;10.80;99.90;;;;;;5097252;28;20192;-40
2022/05/22 01:43:31;;;;;;;5.77;3.90;;;10.70;99.90;;;;;;5097592;28;20703;-41
2022/05/22 01:45:56;;;;;;;5.47;4.10;;;10.70;99.90;;;;;;5097056;28;20247;-39
2022/05/22 01:48:24;;;;;;;4.37;3.70;;;10.70;99.90;;;;;;5097353;28;20248;-40
2022/05/22 01:50:51;;;;;;;6.73;3.90;;;10.60;99.90;;;;;;5096970;28;20203;-41
2022/05/22 01:53:19;;;;;;;6.27;4.10;;;10.60;99.90;;;;;;5097027;28;20183;-40
2022/05/22 01:55:45;;;;;;;4.80;3.70;;;10.60;99.90;;;;;;5097274;28;20185;-41
2022/05/22 01:58:11;;;;;;;8.13;4.57;;;10.50;99.90;;;;;;5096584;28;20263;-40
2022/05/22 02:00:39;;;;;;;7.23;4.87;;;10.50;99.90;;;;;;5096680;28;20200;-40
2022/05/22 02:03:06;;;;;;;9.30;4.33;;;10.50;99.90;;;;;;5096737;28;20173;-41
2022/05/22 02:05:33;;;;;;;7.47;4.50;;;10.50;99.90;;;;;;5078500;28;20553;-39
2022/05/22 02:10:44;;;;;;;8.57;5.07;;;10.40;99.90;;;;;;5096859;28;20246;-40
2022/05/22 02:13:10;;;;;;;8.30;5.60;;;10.40;99.90;;;;;;5096475;28;20198;-41
2022/05/22 02:15:35;;;;;;;9.27;5.73;;;10.40;99.90;;;;;;5096660;28;20261;-41
2022/05/22 02:18:01;;;;;;;9.47;6.17;;;10.40;99.90;;;;;;5096521;28;20211;-41
2022/05/22 02:20:26;;;;;;;10.70;6.27;;;10.40;99.90;;;;;;5095957;28;20191;-39
2022/05/22 02:22:54;;;;;;;9.23;5.53;;;10.40;99.90;;;;;;5096462;28;20179;-41
2022/05/22 02:25:33;;;;;;;6.47;5.03;;;10.40;99.90;;;;;;5097460;28;20204;-44
2022/05/22 02:28:00;;;;;;;7.80;4.50;;;10.40;99.90;;;;;;5097142;28;20603;-45
2022/05/22 02:30:31;;;;;;;6.63;4.83;;;10.40;99.90;;;;;;5097239;28;20179;-44
2022/05/22 02:32:56;;;;;;;9.13;5.10;;;10.30;99.90;;;;;;5097414;28;20182;-45
2022/05/22 02:35:22;;;;;;;6.27;4.83;;;10.30;99.90;;;;;;5098000;28;20178;-44
2022/05/22 02:37:54;;;;;;;6.30;4.33;;;10.30;99.90;;;;;;5097591;28;20193;-42
2022/05/22 02:40:23;;;;;;;8.40;4.87;;;10.20;99.90;;;;;;5097089;28;20198;-45
2022/05/22 02:42:51;;;;;;;8.90;5.00;;;10.30;99.90;;;;;;5097429;28;20170;-43
2022/05/22 02:45:21;;;;;;;12.30;5.33;;;10.20;99.90;;;;;;5097375;28;20230;-42
2022/05/22 02:47:47;;;;;;;7.70;5.00;;;10.20;99.90;;;;;;5097340;28;20245;-42
2022/05/22 02:50:14;;;;;;;11.60;5.57;;;10.30;99.90;;;;;;5097543;28;20231;-43
2022/05/22 02:52:40;;;;;;;11.30;6.53;;;10.20;99.90;;;;;;5097236;28;20174;-42
2022/05/22 02:55:07;;;;;;;9.10;5.83;;;10.20;99.90;;;;;;5097278;28;20250;-45
2022/05/22 02:57:33;;;;;;;10.00;6.60;;;10.20;99.90;;;;;;5097194;28;20203;-43
2022/05/22 02:59:59;;;;;;;8.00;5.70;;;10.20;99.90;;;;;;5097026;28;20199;-42
2022/05/22 03:02:25;;;;;;;12.53;6.80;;;10.20;99.90;;;;;;5097636;28;20192;-43
2022/05/22 03:04:50;;;;;;;10.60;6.40;;;10.30;99.90;;;;;;5097597;28;20171;-44
2022/05/22 03:07:18;;;;;;;9.80;5.63;;;10.30;99.90;;;;;;5096721;28;20221;-46
2022/05/22 03:09:47;;;;;;;10.90;6.67;;;10.20;99.90;;;;;;5070389;28;20677;-45
2022/05/22 03:12:16;;;;;;;8.43;6.07;;;10.30;99.90;;;;;;5096735;28;20256;-44
2022/05/22 03:14:49;;;;;;;11.97;5.83;;;10.30;99.90;;;;;;5096879;28;20197;-45
2022/05/22 03:17:15;;;;;;;9.83;6.30;;;10.30;99.90;;;;;;5096732;28;20214;-44
2022/05/22 03:19:41;;;;;;;11.43;6.70;;;10.30;99.90;;;;;;5096936;28;20174;-45
2022/05/22 03:22:09;;;;;;;11.20;6.87;;;10.30;99.90;;;;;;5096847;28;20180;-44
2022/05/22 03:24:35;;;;;;;10.80;5.83;;;10.40;99.90;;;;;;5096538;28;20175;-44
2022/05/22 03:27:02;;;;;;;11.60;6.40;;;10.40;99.90;;;;;;5097127;28;20586;-45
2022/05/22 03:29:28;;;;;;;7.53;5.60;;;10.40;99.90;;;;;;5096672;28;20179;-42
2022/05/22 03:31:53;;;;;;;9.67;5.80;;;10.30;99.90;;;;;;5097017;28;20281;-45
2022/05/22 03:34:19;;;;;;;9.80;6.30;;;10.40;99.90;;;;;;5096894;28;20179;-43
2022/05/22 03:36:44;;;;;;;10.53;6.13;;;10.40;99.90;;;;;;5096544;28;20206;-42
2022/05/22 03:39:10;;;;;;;10.07;6.03;;;10.40;99.90;;;;;;5096352;28;20663;-47
2022/05/22 03:41:37;;;;;;;9.50;6.50;;;10.30;99.90;;;;;;5096190;28;20281;-43
2022/05/22 03:44:05;;;;;;;8.73;5.70;;;10.30;99.90;;;;;;5097011;28;20651;-44
2022/05/22 03:46:31;;;;;;;7.53;5.73;;;10.30;99.90;;;;;;5096595;28;20221;-44
2022/05/22 03:48:56;;;;;;;9.40;5.80;;;10.30;99.90;;;;;;5096544;28;20202;-42
2022/05/22 03:51:22;;;;;;;6.77;4.67;;;10.30;99.90;;;;;;5097017;28;20254;-45
2022/05/22 03:53:48;;;;;;;8.53;4.97;;;10.30;99.90;;;;;;5096986;28;20186;-45
2022/05/22 03:56:16;;;;;;;6.90;4.57;;;10.20;99.90;;;;;;5096783;28;20186;-43
2022/05/22 03:58:42;;;;;;;8.80;5.43;;;10.20;99.90;;;;;;5097624;28;20577;-45
2022/05/22 04:01:09;;;;;;;8.93;5.40;;;10.10;99.90;;;;;;5096214;28;20282;-43
2022/05/22 04:03:35;;;;;;;10.67;5.03;;;10.10;99.90;;;;;;5097237;28;20309;-43
2022/05/22 04:06:02;;;;;;;8.70;4.77;;;10.00;99.90;;;;;;5078344;28;20187;-43
2022/05/22 04:08:29;;;;;;;9.10;5.27;;;10.10;99.90;;;;;;5096802;28;20191;-44
2022/05/22 04:10:55;;;;;;;6.03;4.27;;;10.10;99.90;;;;;;5096337;28;20184;-46
2022/05/22 04:13:20;;;;;;;8.27;4.53;;;10.00;99.90;;;;;;5096860;28;20187;-45
2022/05/22 04:15:46;;;;;;;9.13;4.40;;;10.00;99.90;;;;;;5095757;28;20509;-42
2022/05/22 04:18:12;;;;;;;7.90;4.90;;;10.00;99.90;;;;;;5095861;28;20198;-45
2022/05/22 04:20:38;;;;;;;11.33;5.83;;;10.00;99.90;;;;;;5095616;28;20256;-44
2022/05/22 04:25:53;;;;;;;13.60;5.23;;;10.00;99.90;;;;;;5096313;28;20185;-44
2022/05/22 04:28:19;;;;;;;8.40;5.37;;;10.00;99.90;;;;;;5078146;28;20342;-45
2022/05/22 04:30:44;;;;;;;11.57;4.77;;;10.00;99.90;;;;;;5096403;28;20639;-43
2022/05/22 04:33:10;;;;;;;8.20;4.53;;;10.00;99.90;;;;;;5096558;28;20209;-44
2022/05/22 04:35:37;;;;;;;8.50;5.07;;;10.00;99.90;;;;;;5096422;28;20186;-45
2022/05/22 04:38:03;;;;;;;10.43;4.90;;;10.10;99.90;;;;;;5097048;28;20666;-43
2022/05/22 04:40:29;;;;;;;14.73;5.13;;;10.10;99.90;;;;;;5096503;28;20199;-44
2022/05/22 04:42:55;;;;;;;10.77;4.73;;;10.10;99.90;;;;;;5098320;28;20174;-43
2022/05/22 04:45:21;;;;;;;17.83;4.83;;;10.10;99.90;;;;;;5078136;28;20181;-43
2022/05/22 04:47:47;;;;;;;8.23;4.83;;;10.20;99.90;;;;;;5077410;28;20198;-45
2022/05/22 04:50:14;;;;;;;12.23;5.63;;;10.20;99.90;;;;;;5094587;28;20175;-44
2022/05/22 04:52:39;;;;;;;10.10;5.20;;;10.20;99.90;;;;;;5095797;28;20266;-43
2022/05/22 04:55:06;;;;;;;15.00;6.23;;;10.30;99.90;;;;;;5096293;28;20255;-45
2022/05/22 04:57:32;;;;;;;10.50;5.90;;;10.40;99.90;;;;;;5094981;28;20191;-44
2022/05/22 04:59:57;;;;;;;16.13;7.53;;;10.40;99.90;;;;;;5095473;28;20230;-44
2022/05/22 05:02:24;;;;;;;13.83;7.23;;;10.50;99.90;;;;;;5095612;28;20174;-44
2022/05/22 05:04:56;;;;;;;13.57;6.73;;;10.60;99.90;;;;;;5095905;28;20503;-43
2022/05/22 05:07:22;;;;;;;17.13;6.40;;;10.60;99.90;;;;;;5094909;28;20191;-44
2022/05/22 05:09:51;;;;;;;10.17;5.90;;;10.70;99.90;;;;;;5095844;28;20238;-44
2022/05/22 05:12:18;;;;;;;17.47;6.87;;;10.70;99.90;;;;;;5095707;28;20206;-43
2022/05/22 05:14:45;;;;;;;11.40;7.03;;;10.90;99.90;;;;;;5095509;28;20225;-43
2022/05/22 05:17:13;;;;;;;13.30;6.97;;;11.00;99.90;;;;;;5094663;28;20214;-43
2022/05/22 05:19:38;;;;;;;19.97;7.47;;;11.10;99.90;;;;;;5095704;28;20186;-44
2022/05/22 05:22:05;;;;;;;26.50;8.43;;;11.20;99.90;;;;;;5096507;28;20175;-44
2022/05/22 05:24:31;;;;;;;16.03;7.40;;;11.30;99.90;;;;;;5096125;28;20229;-43
2022/05/22 05:26:56;;;;;;;15.10;8.30;;;11.50;99.90;;;;;;5096972;28;20577;-45
2022/05/22 05:29:22;;;;;;;16.60;8.50;;;11.60;99.90;;;;;;5096654;28;20182;-43
2022/05/22 05:31:48;;;;;;;16.10;8.63;;;11.70;99.90;;;;;;5095561;28;20187;-41
2022/05/22 05:34:14;;;;;;;17.53;8.23;;;11.80;99.90;;;;;;5075748;28;20228;-39
2022/05/22 05:36:40;;;;;;;15.83;8.37;;;11.90;99.90;;;;;;5093195;28;20266;-38
2022/05/22 05:39:07;;;;;;;20.00;8.50;;;12.00;99.90;;;;;;5093171;28;20568;-37
2022/05/22 05:41:35;;;;;;;16.47;8.33;;;12.10;99.90;;;;;;5093146;28;20199;-37
2022/05/22 05:44:05;;;;;;;13.87;7.63;;;12.10;99.90;;;;;;5093129;28;20177;-38
2022/05/22 05:46:35;;;;;;;17.20;8.27;;;12.20;99.90;;;;;;5093406;28;20152;-38
2022/05/22 05:49:02;;;;;;;14.60;9.10;;;12.30;99.90;;;;;;5093548;28;20203;-38
2022/05/22 05:51:27;;;;;;;17.20;8.47;;;12.40;99.90;;;;;;5093130;28;20180;-39
2022/05/22 05:53:53;;;;;;;15.57;8.67;;;12.50;99.90;;;;;;5093239;28;20191;-40
2022/05/22 05:56:19;;;;;;;17.23;8.63;;;12.50;99.90;;;;;;5093201;28;20176;-39
2022/05/22 05:58:45;;;;;;;15.17;8.70;;;12.60;99.90;;;;;;5093120;28;20192;-39
2022/05/22 06:01:15;;;;;;;17.40;9.47;;;12.70;99.90;;;;;;5075253;28;20199;-42
2022/05/22 06:03:40;;;;;;;18.43;9.17;;;12.80;99.90;;;;;;5097990;28;20180;-39
2022/05/22 06:06:09;;;;;;;13.80;8.73;;;12.90;99.90;;;;;;5096796;28;20251;-39
2022/05/22 06:08:42;;;;;;;19.83;9.67;;;13.10;99.90;;;;;;5080291;28;20219;-40
2022/05/22 06:11:08;;;;;;;16.10;8.80;;;13.20;99.90;;;;;;5096706;28;20187;-40
2022/05/22 06:13:34;;;;;;;20.00;9.60;;;13.20;99.90;;;;;;5097222;28;20197;-39
2022/05/22 06:16:05;;;;;;;16.13;9.47;;;13.40;99.90;;;;;;5097055;28;20199;-39
2022/05/22 06:18:31;;;;;;;14.07;9.33;;;13.50;99.90;;;;;;5096731;28;20207;-40
2022/05/22 06:20:56;;;;;;;16.40;9.20;;;13.80;99.90;;;;;;5096887;28;20279;-41
2022/05/22 06:23:22;;;;;;;15.90;8.67;;;14.10;99.90;;;;;;5078283;28;20696;-40
2022/05/22 06:25:48;;;;;;;11.20;8.57;;;14.40;99.90;;;;;;5096565;28;20171;-40
2022/05/22 06:28:15;;;;;;;14.27;8.37;;;14.50;99.90;;;;;;5096593;28;20202;-39
2022/05/22 06:30:41;;;;;;;14.50;8.70;;;14.60;99.90;;;;;;5096326;28;20173;-41
2022/05/22 06:33:10;;;;;;;16.73;9.50;;;14.70;99.90;;;;;;5096486;28;20186;-39
2022/05/22 06:35:40;;;;;;;13.87;9.20;;;14.80;99.90;;;;;;5096806;28;20624;-40
2022/05/22 06:38:07;;;;;;;14.63;8.03;;;15.20;99.90;;;;;;5099437;22;20238;-39
2022/05/22 06:40:32;;;;;;;13.50;8.57;;;15.30;99.90;;;;;;5079695;28;20671;-38
2022/05/22 06:43:01;;;;;;;18.33;8.60;;;15.50;99.90;;;;;;5080446;28;20282;-40
2022/05/22 06:45:28;;;;;;;12.03;8.20;;;15.60;99.90;;;;;;5076097;28;20203;-38
2022/05/22 06:47:54;;;;;;;15.87;8.30;;;15.90;99.90;;;;;;5075371;28;20191;-41
2022/05/22 06:50:24;;;;;;;13.93;8.70;;;16.00;99.90;;;;;;5075598;28;20183;-40
2022/05/22 06:52:50;;;;;;;13.13;8.40;;;16.20;99.90;;;;;;5075798;28;20579;-40
2022/05/22 06:55:16;;;;;;;13.27;8.60;;;16.30;99.90;;;;;;5075423;28;20175;-40
2022/05/22 06:57:42;;;;;;;14.13;8.97;;;16.50;99.90;;;;;;5075415;28;20204;-40
2022/05/22 07:00:14;;;;;;;12.40;8.47;;;16.60;99.90;;;;;;5075546;28;20203;-40
2022/05/22 07:02:41;;;;;;;14.30;8.03;;;16.80;99.90;;;;;;5075706;28;20164;-40
2022/05/22 07:05:08;;;;;;;22.00;8.63;;;16.90;99.90;;;;;;5075362;28;20541;-39
2022/05/22 07:07:34;;;;;;;11.83;7.70;;;17.10;99.90;;;;;;5075267;28;20202;-39
2022/05/22 07:09:59;;;;;;;12.30;6.97;;;17.30;99.90;;;;;;5073947;28;20184;-39
2022/05/22 07:12:25;;;;;;;9.97;6.70;;;17.60;99.90;;;;;;5075011;28;20168;-39
2022/05/22 07:14:55;;;;;;;12.20;7.00;;;17.70;99.90;;;;;;5074024;28;20183;-40
2022/05/22 07:17:24;;;;;;;11.50;6.93;;;17.90;99.90;;;;;;5075414;28;20199;-41
2022/05/22 07:19:51;;;;;;;13.23;7.23;;;18.00;99.90;;;;;;5075190;28;20190;-41
2022/05/22 07:22:16;;;;;;;9.00;6.50;;;18.20;99.90;;;;;;5075098;28;20180;-41
2022/05/22 07:24:42;;;;;;;10.57;6.10;;;18.50;99.90;;;;;;5073565;28;20183;-40
2022/05/22 07:27:08;;;;;;;14.70;6.07;;;18.70;99.90;;;;;;5073519;28;20172;-42
2022/05/22 07:29:34;;;;;;;9.67;5.80;;;18.80;99.90;;;;;;5075341;28;20202;-42
2022/05/22 07:31:59;;;;;;;8.40;5.60;;;19.00;99.90;;;;;;5075133;28;20179;-40
2022/05/22 07:34:26;;;;;;;7.17;5.80;;;19.30;99.90;;;;;;5075118;28;20175;-41
2022/05/22 07:36:56;;;;;;;10.13;6.20;;;19.30;99.90;;;;;;5074566;28;20259;-39
2022/05/22 07:39:22;;;;;;;8.50;5.87;;;19.30;99.90;;;;;;5074827;28;20176;-38
2022/05/22 07:41:47;;;;;;;11.03;5.63;;;19.40;99.90;;;;;;5074622;28;20203;-39
2022/05/22 07:44:13;;;;;;;8.00;5.60;;;19.60;99.90;;;;;;5074674;28;20596;-38
2022/05/22 07:46:38;;;;;;;8.07;5.10;;;19.90;99.90;;;;;;5074303;28;20262;-41
2022/05/22 07:49:04;;;;;;;9.60;5.50;;;20.10;99.90;;;;;;5074677;28;20195;-39
2022/05/22 07:51:29;;;;;;;11.57;5.90;;;20.40;99.90;;;;;;5074668;28;20188;-39
2022/05/22 07:53:55;;;;;;;9.97;6.10;;;20.50;99.90;;;;;;5074205;28;20211;-38
2022/05/22 07:56:22;;;;;;;9.57;5.40;;;20.60;99.90;;;;;;5074168;28;20186;-40
2022/05/22 07:58:50;;;;;;;10.53;5.67;;;20.80;99.90;;;;;;5074168;28;20282;-39
2022/05/22 08:01:16;;;;;;;7.73;5.10;;;20.80;99.90;;;;;;5074156;28;20206;-42
2022/05/22 08:03:42;;;;;;;8.73;5.80;;;20.90;99.90;;;;;;5073989;28;20194;-39
2022/05/22 08:06:08;;;;;;;9.57;5.60;;;21.00;99.90;;;;;;5072746;28;20176;-41
2022/05/22 08:08:33;;;;;;;9.07;6.07;;;21.20;99.90;;;;;;5074138;28;20195;-42
2022/05/22 08:10:59;;;;;;;9.47;5.93;;;21.20;99.90;;;;;;5074259;28;20180;-40
2022/05/22 08:13:25;;;;;;;9.47;5.63;;;21.20;99.90;;;;;;5074047;28;20175;-42
2022/05/22 08:15:51;;;;;;;10.13;6.37;;;21.20;99.90;;;;;;5073889;28;20689;-41
2022/05/22 08:18:17;;;;;;;12.27;6.20;;;21.30;99.90;;;;;;5073742;28;20195;-41
2022/05/22 08:20:43;;;;;;;7.23;5.73;;;21.10;99.90;;;;;;5073950;28;20615;-42
2022/05/22 08:23:14;;;;;;;13.37;6.50;;;20.90;99.90;;;;;;5073830;28;20179;-40
2022/05/22 08:25:39;;;;;;;11.20;7.03;;;20.60;99.90;;;;;;5073777;28;20156;-38
2022/05/22 08:28:05;;;;;;;8.53;5.83;;;20.50;99.90;;;;;;5071944;28;20191;-41
2022/05/22 08:30:32;;;;;;;8.00;5.50;;;20.10;99.90;;;;;;5073968;28;20245;-38
2022/05/22 08:32:58;;;;;;;13.30;5.60;;;19.80;99.90;;;;;;5073735;28;20205;-39
2022/05/22 08:35:27;;;;;;;7.80;5.00;;;19.50;99.90;;;;;;5073530;28;20175;-41
2022/05/22 08:37:53;;;;;;;9.67;5.43;;;19.50;99.90;;;;;;5073291;28;20214;-36
2022/05/22 08:40:21;;;;;;;10.00;5.63;;;19.60;99.90;;;;;;5073609;28;20199;-41
2022/05/22 08:42:53;;;;;;;8.33;5.00;;;19.60;99.90;;;;;;5073327;28;20179;-41
2022/05/22 08:45:26;;;;;;;8.70;5.07;;;19.70;99.90;;;;;;5074197;28;20504;-42
2022/05/22 08:48:00;;;;;;;11.93;5.20;;;20.00;99.90;;;;;;5073325;28;20199;-40
2022/05/22 08:50:29;;;;;;;11.10;5.37;;;20.30;99.90;;;;;;5073434;28;20639;-40
2022/05/22 08:53:01;;;;;;;9.57;5.60;;;20.30;99.90;;;;;;5073562;28;20193;-39
2022/05/22 08:58:56;;;;;;;8.80;5.33;;;20.50;99.90;;;;;;5073545;28;20206;-41
2022/05/22 09:01:54;;;;;;;7.70;5.57;;;20.40;99.90;;;;;;5073674;28;20253;-40
2022/05/22 09:04:43;;;;;;;10.40;5.83;;;20.50;99.90;;;;;;5069426;28;20191;-40
2022/05/22 09:07:29;;;;;;;11.07;6.27;;;20.50;99.90;;;;;;5073413;28;20235;-39
2022/05/22 09:10:13;;;;;;;10.50;5.87;;;20.70;99.90;;;;;;5073857;28;20171;-39
2022/05/22 09:13:06;;;;;;;10.33;5.70;;;20.90;99.90;;;;;;5073369;28;20179;-39
2022/05/22 09:15:43;;;;;;;10.60;5.73;;;21.10;99.90;;;;;;5073364;28;20541;-42
2022/05/22 09:18:32;;;;;;;10.17;6.97;;;21.20;99.90;;;;;;5073285;28;20642;-40
2022/05/22 09:21:18;;;;;;;8.07;5.80;;;21.40;99.90;;;;;;5073284;28;20207;-40
2022/05/22 09:23:52;;;;;;;11.03;6.47;;;21.40;99.90;;;;;;5073049;28;20168;-39
2022/05/22 09:26:38;;;;;;;10.87;5.23;;;21.60;99.90;;;;;;5072968;28;20199;-40
2022/05/22 09:29:35;;;;;;;12.33;4.90;;;21.70;99.90;;;;;;5088451;28;20210;-40
2022/05/22 09:32:04;;;;;;;10.93;5.43;;;21.70;99.90;;;;;;5072817;28;20172;-39
2022/05/22 09:34:54;;;;;;;10.27;5.77;;;21.80;99.90;;;;;;5072986;28;20182;-40
2022/05/22 09:37:46;;;;;;;10.60;5.20;;;21.90;99.90;;;;;;5074695;28;20709;-40
2022/05/22 09:40:40;;;;;;;7.10;4.53;;;22.10;99.90;;;;;;5076692;28;20196;-42
2022/05/22 09:43:28;;;;;;;9.43;4.93;;;22.40;99.90;;;;;;5076635;28;20259;-39
2022/05/22 09:46:19;;;;;;;9.43;5.43;;;22.50;99.90;;;;;;5057233;28;20183;-37
2022/05/22 09:48:57;;;;;;;8.57;4.93;;;22.70;99.90;;;;;;5076668;28;20192;-39
2022/05/22 09:51:22;;;;;;;7.70;4.17;;;23.00;99.90;;;;;;5077105;28;20190;-39
2022/05/22 09:54:32;;;;;;;7.57;3.80;;;23.10;99.90;;;;;;5077306;28;20202;-38
2022/05/22 09:57:27;;;;;;;11.10;3.67;;;23.30;99.90;;;;;;5053029;28;20274;-37
2022/05/22 10:00:31;;;;;;;9.57;3.97;;;23.60;99.90;;;;;;5070695;28;20659;-38
2022/05/22 10:03:19;;;;;;;6.70;2.77;;;23.80;99.90;;;;;;5055080;28;20188;-39
2022/05/22 10:06:02;;;;;;;7.77;3.47;;;23.90;99.90;;;;;;5056985;28;20729;-38
2022/05/22 10:08:40;;;;;;;5.47;3.30;;;24.00;99.90;;;;;;5076269;28;20195;-39
2022/05/22 10:11:15;;;;;;;7.17;3.53;;;23.70;99.90;;;;;;5076633;28;20600;-44
2022/05/22 10:14:09;;;;;;;5.97;3.20;;;23.50;99.90;;;;;;5076092;28;20233;-44
2022/05/22 10:16:41;;;;;;;5.27;3.10;;;23.70;99.90;;;;;;5076330;28;20490;-45
2022/05/22 10:19:15;;;;;;;7.00;3.53;;;24.00;99.90;;;;;;5076045;28;20666;-43
2022/05/22 10:21:54;;;;;;;7.50;3.40;;;24.10;99.90;;;;;;5076160;28;20273;-46
2022/05/22 10:24:43;;;;;;;7.70;3.37;;;24.20;99.90;;;;;;5076119;28;20541;-45
2022/05/22 10:27:15;;;;;;;5.27;2.73;;;24.40;99.90;;;;;;5075948;28;20286;-44
2022/05/22 10:30:22;;;;;;;6.90;4.00;;;24.50;99.90;;;;;;5076086;28;20659;-45
2022/05/22 10:33:07;;;;;;;5.80;3.17;;;24.50;99.90;;;;;;5069953;28;20203;-43
2022/05/22 10:35:52;;;;;;;5.60;2.83;;;24.40;99.90;;;;;;5075631;28;20615;-45
2022/05/22 10:38:23;;;;;;;7.87;3.63;;;24.50;99.90;;;;;;5076475;28;20280;-46
2022/05/22 10:43:43;;;;;;;8.53;3.50;;;24.80;99.90;;;;;;5077010;28;20171;-46
2022/05/22 10:46:08;;;;;;;8.30;3.83;;;24.90;99.90;;;;;;5076384;28;20270;-46
2022/05/22 10:48:45;;;;;;;5.43;3.20;;;25.10;99.90;;;;;;5076444;28;20230;-47
2022/05/22 10:51:24;;;;;;;6.00;3.30;;;25.10;99.90;;;;;;5076154;28;20263;-45
2022/05/22 10:53:53;;;;;;;9.17;3.40;;;25.20;99.90;;;;;;5075964;28;20250;-47
2022/05/22 10:56:26;;;;;;;7.60;2.97;;;25.20;99.90;;;;;;5076129;28;20260;-47
2022/05/22 10:59:00;;;;;;;6.43;2.93;;;25.20;99.90;;;;;;5075683;28;20690;-45
2022/05/22 11:01:28;;;;;;;5.40;2.90;;;25.20;99.90;;;;;;5075978;28;20203;-47
2022/05/22 11:04:14;;;;;;;4.97;2.70;;;25.40;99.90;;;;;;5075409;28;20195;-47
2022/05/22 11:07:07;;;;;;;5.70;2.57;;;25.50;99.90;;;;;;5075327;28;20215;-46
2022/05/22 11:09:43;;;;;;;4.67;2.53;;;25.60;99.90;;;;;;5073677;28;20286;-45
2022/05/22 11:12:12;;;;;;;6.10;2.80;;;25.60;99.90;;;;;;5075467;28;20225;-46
2022/05/22 11:14:39;;;;;;;5.60;2.38;;;25.50;99.90;;;;;;5075856;28;20195;-46
2022/05/22 11:17:16;;;;;;;6.25;2.42;;;25.10;99.90;;;;;;5075751;28;20225;-47
2022/05/22 11:19:44;;;;;;;6.00;2.63;;;25.10;99.90;;;;;;5075888;28;20176;-45
2022/05/22 11:22:27;;;;;;;5.68;2.20;;;24.80;99.90;;;;;;5075393;28;20198;-47
2022/05/22 11:25:11;;;;;;;3.28;2.00;;;24.60;99.90;;;;;;5075575;28;20171;-46
2022/05/22 11:27:59;;;;;;;4.18;2.25;;;24.80;99.90;;;;;;5075045;28;20191;-46
2022/05/22 11:30:47;;;;;;;6.53;2.33;;;25.00;99.90;;;;;;5075234;28;20643;-46
2022/05/22 11:33:39;;;;;;;3.25;2.42;;;25.20;99.90;;;;;;5075498;28;20539;-46
2022/05/22 11:36:19;;;;;;;6.50;2.38;;;25.30;99.90;;;;;;5075282;28;20175;-46
2022/05/22 11:39:00;;;;;;;5.22;2.47;;;25.40;99.90;;;;;;5074801;28;20221;-47
2022/05/22 11:41:35;;;;;;;5.57;2.45;;;25.60;99.90;;;;;;5074962;28;20215;-47
2022/05/22 11:44:40;;;;;;;4.88;2.70;;;25.90;99.90;;;;;;5074672;28;20155;-46
2022/05/22 11:47:56;;;;;;;5.88;3.00;;;25.90;99.90;;;;;;5074829;28;20233;-46
2022/05/22 11:50:40;;;;;;;5.20;2.88;;;26.00;99.90;;;;;;5075043;28;20195;-45
2022/05/22 11:53:21;;;;;;;4.95;2.53;;;26.10;99.90;;;;;;5075279;28;20172;-46
2022/05/22 11:56:11;;;;;;;5.88;2.40;;;26.20;99.90;;;;;;5076549;28;20242;-47
2022/05/22 11:59:19;;;;;;;5.85;2.75;;;26.30;99.90;;;;;;5076461;28;20227;-45
2022/05/22 12:02:11;;;;;;;8.45;3.17;;;26.10;99.90;;;;;;5066159;28;20254;-46
2022/05/22 12:05:19;;;;;;;5.68;2.80;;;26.00;99.90;;;;;;5076035;28;20156;-46
2022/05/22 12:08:23;;;;;;;5.40;2.45;;;25.60;99.70;;;;;;5062302;28;20204;-46
2022/05/22 12:11:38;;;;;;;3.35;2.20;;;25.40;99.90;;;;;;5076496;28;20178;-46
2022/05/22 12:14:53;;;;;;;8.00;3.05;;;25.70;99.90;;;;;;5056702;28;20195;-46
2022/05/22 12:17:43;;;;;;;6.43;2.90;;;25.60;99.90;;;;;;5076801;28;20253;-45
2022/05/22 12:20:14;;;;;;;6.53;2.72;;;25.20;99.20;;;;;;5074688;28;20195;-46
2022/05/22 12:23:10;;;;;;;7.57;3.38;;;24.70;99.90;;;;;;5072641;28;20168;-47
2022/05/22 12:25:59;;;;;;;5.20;2.42;;;24.40;99.90;;;;;;5073896;28;20174;-44
2022/05/22 12:28:47;;;;;;;5.63;2.13;;;24.40;99.90;;;;;;5072507;28;20199;-44
2022/05/22 12:31:26;;;;;;;5.10;2.50;;;24.70;99.90;;;;;;5073888;28;20249;-45
2022/05/22 12:33:54;;;;;;;8.93;3.38;;;24.70;99.90;;;;;;5074038;28;20168;-45
2022/05/22 12:36:26;;;;;;;8.32;3.08;;;24.60;99.70;;;;;;5073517;28;20179;-45
2022/05/22 12:39:04;;;;;;;5.75;2.58;;;24.40;99.90;;;;;;5073548;28;20655;-44
2022/05/22 12:41:40;;;;;;;5.35;2.10;;;24.60;99.90;;;;;;5074298;28;20197;-44
2022/05/22 12:46:50;;;;;;;6.15;2.50;;;25.20;99.90;;;;;;4874044;26;20222;-47
2022/05/22 12:49:28;;;;;;;5.85;2.67;;;25.60;99.90;;;;;;5058800;28;20262;-47
2022/05/22 12:52:06;;;;;;;7.30;2.60;;;25.80;99.90;;;;;;5078069;28;20179;-46
2022/05/22 12:54:35;;;;;;;5.40;3.15;;;26.10;99.90;;;;;;5079305;28;20645;-47
2022/05/22 12:57:10;;;;;;;6.28;2.58;;;26.20;99.90;;;;;;5061672;28;20183;-47
2022/05/22 12:59:36;;;;;;;6.80;2.83;;;26.30;99.90;;;;;;5078855;28;20198;-46
2022/05/22 13:02:02;;;;;;;5.63;2.33;;;26.50;99.90;;;;;;5079523;28;20313;-48
2022/05/22 13:04:34;;;;;;;10.32;2.97;;;26.60;99.90;;;;;;5079100;28;20183;-48
2022/05/22 13:07:11;;;;;;;4.68;2.47;;;26.60;98.10;;;;;;5078777;28;20156;-47
2022/05/22 13:09:52;;;;;;;4.50;2.20;;;26.40;99.80;;;;;;5078860;28;20171;-47
2022/05/22 13:12:21;;;;;;;6.75;2.75;;;26.30;99.90;;;;;;5080285;28;20178;-45
2022/05/22 13:14:51;;;;;;;6.18;2.90;;;26.40;99.90;;;;;;5082951;28;20175;-47
2022/05/22 13:17:43;;;;;;;8.45;2.40;;;26.30;99.10;;;;;;5082413;28;20226;-47
2022/05/22 13:20:32;;;;;;;4.88;2.55;;;26.20;99.90;;;;;;5082961;28;20182;-47
2022/05/22 13:23:23;;;;;;;8.55;2.60;;;26.30;99.80;;;;;;5073168;28;20245;-47